createdAt,value
2022-08-05T00:02:27.510Z,101034.34
2022-08-05T00:04:56.171Z,101041.91
2022-08-05T00:07:59.023Z,101038.31
2022-08-05T00:10:10.359Z,101045.00
2022-08-05T00:12:55.808Z,101037.03
2022-08-05T00:15:56.229Z,101044.06
2022-08-05T00:18:10.092Z,101038.47
2022-08-05T00:20:48.950Z,101040.50
2022-08-05T00:23:16.013Z,101044.81
2022-08-05T00:25:45.599Z,101048.34
2022-08-05T00:28:13.422Z,101052.69
2022-08-05T00:30:41.065Z,101050.56
2022-08-05T00:34:41.971Z,101049.34
2022-08-05T00:36:15.977Z,101039.63
2022-08-05T00:38:44.787Z,101046.31
2022-08-05T00:41:12.086Z,101035.72
2022-08-05T00:43:47.008Z,101041.03
2022-08-05T00:46:16.698Z,101033.06
2022-08-05T00:48:50.874Z,101040.56
2022-08-05T00:51:51.066Z,101043.44
2022-08-05T00:54:06.564Z,101042.25
2022-08-05T00:56:33.527Z,101037.06
2022-08-05T00:59:00.460Z,101039.19
2022-08-05T01:01:42.566Z,101041.44
2022-08-05T01:04:15.842Z,101032.69
2022-08-05T01:06:43.653Z,101042.28
2022-08-05T01:09:10.616Z,101042.69
2022-08-05T01:11:39.617Z,101043.25
2022-08-05T01:14:27.773Z,101034.16
2022-08-05T01:17:14.042Z,101044.84
2022-08-05T01:20:01.823Z,101033.72
2022-08-05T01:22:31.742Z,101042.47
2022-08-05T01:25:07.756Z,101041.03
2022-08-05T01:27:40.984Z,101044.91
2022-08-05T01:30:34.340Z,101048.03
2022-08-05T01:33:06.251Z,101061.88
2022-08-05T01:35:51.176Z,101053.59
2022-08-05T01:38:27.218Z,101053.53
2022-08-05T01:40:59.811Z,101050.44
2022-08-05T01:43:29.403Z,101058.81
2022-08-05T01:45:57.785Z,101056.50
2022-08-05T01:48:26.068Z,101052.03
2022-08-05T01:50:55.456Z,101056.25
2022-08-05T01:53:54.928Z,101044.34
2022-08-05T01:56:13.263Z,101043.69
2022-08-05T01:59:01.004Z,101039.03
2022-08-05T02:01:28.617Z,101039.34
2022-08-05T02:04:05.420Z,101029.44
2022-08-05T02:06:38.393Z,101033.25
2022-08-05T02:09:06.372Z,101030.94
2022-08-05T02:11:42.330Z,101026.53
2022-08-05T02:14:17.541Z,101022.34
2022-08-05T02:16:52.922Z,101023.25
2022-08-05T02:19:28.892Z,101025.00
2022-08-05T02:22:25.957Z,101017.47
2022-08-05T02:25:00.062Z,101012.28
2022-08-05T02:27:30.265Z,101023.72
2022-08-05T02:30:16.618Z,101033.72
2022-08-05T02:32:48.105Z,101035.47
2022-08-05T02:35:18.957Z,101027.25
2022-08-05T02:37:54.062Z,101021.53
2022-08-05T02:40:21.890Z,101014.19
2022-08-05T02:42:54.042Z,101013.53
2022-08-05T02:45:24.070Z,101013.75
2022-08-05T02:48:06.958Z,101014.41
2022-08-05T02:50:44.044Z,101014.91
2022-08-05T02:53:18.713Z,101019.94
2022-08-05T02:55:54.746Z,101019.75
2022-08-05T02:58:27.287Z,101032.16
2022-08-05T03:00:56.788Z,101053.28
2022-08-05T03:03:23.975Z,101039.22
2022-08-05T03:06:55.285Z,101038.69
2022-08-05T03:08:42.458Z,101042.38
2022-08-05T03:11:54.642Z,101036.84
2022-08-05T03:14:08.053Z,101042.03
2022-08-05T03:16:35.848Z,101048.88
2022-08-05T03:19:06.492Z,101049.19
2022-08-05T03:21:41.535Z,101051.69
2022-08-05T03:24:16.904Z,101055.22
2022-08-05T03:26:43.948Z,101044.81
2022-08-05T03:29:17.339Z,101047.00
2022-08-05T03:31:57.394Z,101062.88
2022-08-05T03:34:28.070Z,101067.06
2022-08-05T03:36:55.825Z,101062.25
2022-08-05T03:39:26.774Z,101061.53
2022-08-05T03:41:56.299Z,101075.09
2022-08-05T03:44:24.247Z,101076.06
2022-08-05T03:46:51.283Z,101061.00
2022-08-05T03:49:18.019Z,101064.50
2022-08-05T03:52:50.200Z,101065.69
2022-08-05T03:55:54.081Z,101064.66
2022-08-05T03:57:45.527Z,101062.94
2022-08-05T04:00:15.572Z,101052.25
2022-08-05T04:02:57.846Z,101061.16
2022-08-05T04:05:27.951Z,101054.50
2022-08-05T04:08:05.554Z,101047.16
2022-08-05T04:10:42.249Z,101039.63
2022-08-05T04:13:09.275Z,101042.31
2022-08-05T04:15:36.785Z,101042.81
2022-08-05T04:18:07.397Z,101039.13
2022-08-05T04:20:36.543Z,101043.78
2022-08-05T04:23:03.669Z,101058.53
2022-08-05T04:25:57.496Z,101052.53
2022-08-05T04:28:17.956Z,101051.69
2022-08-05T04:30:45.155Z,101052.53
2022-08-05T04:33:12.543Z,101057.91
2022-08-05T04:36:15.545Z,101055.22
2022-08-05T04:38:39.538Z,101058.94
2022-08-05T04:41:09.518Z,101055.75
2022-08-05T04:43:37.351Z,101054.94
2022-08-05T04:46:05.108Z,101056.97
2022-08-05T04:48:32.285Z,101061.16
2022-08-05T04:51:01.724Z,101060.13
2022-08-05T04:53:33.606Z,101057.59
2022-08-05T04:56:32.202Z,101062.44
2022-08-05T04:58:49.850Z,101059.91
2022-08-05T05:02:08.337Z,101060.22
2022-08-05T05:04:03.815Z,101054.44
2022-08-05T05:06:39.448Z,101056.13
2022-08-05T05:09:14.272Z,101056.25
2022-08-05T05:11:54.042Z,101051.59
2022-08-05T05:14:28.023Z,101052.75
2022-08-05T05:17:00.190Z,101051.47
2022-08-05T05:19:36.598Z,101051.41
2022-08-05T05:22:23.045Z,101058.22
2022-08-05T05:24:57.634Z,101052.47
2022-08-05T05:27:45.349Z,101049.19
2022-08-05T05:30:29.316Z,101044.53
2022-08-05T05:33:00.866Z,101050.00
2022-08-05T05:35:34.153Z,101050.91
2022-08-05T05:38:09.144Z,101048.06
2022-08-05T05:40:39.301Z,101052.28
2022-08-05T05:43:10.717Z,101051.69
2022-08-05T05:45:37.518Z,101045.56
2022-08-05T05:48:16.021Z,101047.53
2022-08-05T05:50:44.228Z,101036.31
2022-08-05T05:53:21.496Z,101038.16
2022-08-05T05:55:51.769Z,101032.25
2022-08-05T05:58:31.501Z,101030.81
2022-08-05T06:01:13.409Z,101038.78
2022-08-05T06:04:00.996Z,101040.19
2022-08-05T06:06:31.107Z,101052.84
2022-08-05T06:08:58.513Z,101050.59
2022-08-05T06:11:25.273Z,101044.84
2022-08-05T06:13:55.352Z,101049.59
2022-08-05T06:16:28.928Z,101049.31
2022-08-05T06:19:00.911Z,101052.34
2022-08-05T06:21:36.505Z,101060.38
2022-08-05T06:24:06.046Z,101054.28
2022-08-05T06:26:35.084Z,101048.69
2022-08-05T06:29:06.077Z,101041.34
2022-08-05T06:31:33.590Z,101027.75
2022-08-05T06:34:06.418Z,101029.50
2022-08-05T06:36:56.647Z,101023.16
2022-08-05T06:39:21.764Z,101022.09
2022-08-05T06:41:49.634Z,101013.38
2022-08-05T06:44:18.958Z,101020.03
2022-08-05T06:46:50.807Z,101022.78
2022-08-05T06:49:18.888Z,101024.56
2022-08-05T06:51:48.084Z,101031.63
2022-08-05T06:54:18.109Z,101037.22
2022-08-05T06:56:54.693Z,101055.75
2022-08-05T06:59:38.893Z,101071.63
2022-08-05T07:02:09.255Z,101079.75
2022-08-05T07:04:36.442Z,101088.34
2022-08-05T07:07:03.420Z,101086.16
2022-08-05T07:09:40.399Z,101085.22
2022-08-05T07:12:07.897Z,101085.28
2022-08-05T07:14:54.039Z,101101.25
2022-08-05T07:17:58.408Z,101110.06
2022-08-05T07:20:32.050Z,101126.09
2022-08-05T07:22:55.401Z,101129.31
2022-08-05T07:25:56.338Z,101129.72
2022-08-05T07:28:11.619Z,101118.66
2022-08-05T07:30:39.892Z,101115.91
2022-08-05T07:33:16.190Z,101120.94
2022-08-05T07:36:04.062Z,101124.25
2022-08-05T07:38:35.346Z,101118.97
2022-08-05T07:42:07.129Z,101115.13
2022-08-05T07:43:58.353Z,101111.44
2022-08-05T07:46:26.924Z,101116.47
2022-08-05T07:49:01.615Z,101112.22
2022-08-05T07:51:36.901Z,101119.72
2022-08-05T07:54:08.412Z,101120.75
2022-08-05T07:57:00.442Z,101110.78
2022-08-05T07:59:38.638Z,101098.63
2022-08-05T08:02:16.117Z,101119.28
2022-08-05T08:04:45.052Z,101128.47
2022-08-05T08:07:12.903Z,101128.41
2022-08-05T08:09:39.626Z,101127.19
2022-08-05T08:12:15.911Z,101121.09
2022-08-05T08:14:48.139Z,101125.03
2022-08-05T08:17:15.923Z,101121.59
2022-08-05T08:20:22.956Z,101134.78
2022-08-05T08:22:32.517Z,101139.91
2022-08-05T08:25:03.246Z,101140.38
2022-08-05T08:27:45.114Z,101143.78
2022-08-05T08:30:29.414Z,101155.16
2022-08-05T08:33:04.455Z,101156.34
2022-08-05T08:35:35.149Z,101160.03
2022-08-05T08:38:07.930Z,101164.09
2022-08-05T08:40:35.857Z,101163.53
2022-08-05T08:45:18.160Z,101160.88
2022-08-05T08:45:52.945Z,101171.25
2022-08-05T08:48:43.053Z,101165.34
2022-08-05T08:52:01.957Z,101161.28
2022-08-05T08:53:54.960Z,101162.66
2022-08-05T08:56:23.664Z,101150.75
2022-08-05T08:58:54.014Z,101144.66
2022-08-05T09:01:21.339Z,101150.53
2022-08-05T09:03:54.331Z,101146.22
2022-08-05T09:06:24.297Z,101163.50
2022-08-05T09:08:55.206Z,101161.50
2022-08-05T09:11:51.499Z,101159.00
2022-08-05T09:14:58.131Z,101160.34
2022-08-05T09:16:55.847Z,101159.47
2022-08-05T09:19:27.866Z,101161.19
2022-08-05T09:22:22.997Z,101160.03
2022-08-05T09:25:13.536Z,101158.00
2022-08-05T09:28:04.669Z,101151.06
2022-08-05T09:30:27.864Z,101164.63
2022-08-05T09:33:01.184Z,101174.31
2022-08-05T09:35:29.436Z,101177.88
2022-08-05T09:38:16.459Z,101206.97
2022-08-05T09:40:44.572Z,101194.78
2022-08-05T09:43:49.386Z,101187.94
2022-08-05T09:46:29.855Z,101184.72
2022-08-05T09:49:08.273Z,101195.50
2022-08-05T09:51:44.446Z,101176.41
2022-08-05T09:54:16.345Z,101185.06
2022-08-05T09:56:52.227Z,101176.47
2022-08-05T09:59:23.894Z,101169.69
2022-08-05T10:01:58.052Z,101168.41
2022-08-05T10:04:35.380Z,101166.91
2022-08-05T10:07:25.057Z,101173.69
2022-08-05T10:10:04.412Z,101184.84
2022-08-05T10:13:01.388Z,101182.34
2022-08-05T10:15:35.656Z,101190.34
2022-08-05T10:18:16.677Z,101186.19
2022-08-05T10:20:47.787Z,101188.28
2022-08-05T10:23:34.617Z,101184.28
2022-08-05T10:26:13.957Z,101182.03
2022-08-05T10:28:42.966Z,101171.50
2022-08-05T10:32:54.070Z,101187.59
2022-08-05T10:33:59.513Z,101178.38
2022-08-05T10:36:27.565Z,101182.13
2022-08-05T10:39:01.026Z,101186.22
2022-08-05T10:41:47.383Z,101185.03
2022-08-05T10:44:17.292Z,101189.38
2022-08-05T10:46:46.058Z,101186.25
2022-08-05T10:49:17.771Z,101186.78
2022-08-05T10:52:00.255Z,101174.53
2022-08-05T10:54:47.194Z,101172.09
2022-08-05T10:57:29.386Z,101160.63
2022-08-05T11:00:17.883Z,101147.72
2022-08-05T11:03:23.300Z,101171.13
2022-08-05T11:06:20.076Z,101187.94
2022-08-05T11:09:05.784Z,101199.19
2022-08-05T11:11:44.759Z,101209.47
2022-08-05T11:14:42.843Z,101229.41
2022-08-05T11:17:59.859Z,101233.41
2022-08-05T11:20:32.823Z,101221.91
2022-08-05T11:23:05.952Z,101213.41
2022-08-05T11:26:05.015Z,101198.66
2022-08-05T11:28:36.052Z,101188.25
2022-08-05T11:31:06.209Z,101181.13
2022-08-05T11:33:46.442Z,101172.28
2022-08-05T11:36:34.440Z,101170.25
2022-08-05T11:39:06.568Z,101174.50
2022-08-05T11:42:01.264Z,101154.44
2022-08-05T11:44:40.293Z,101161.34
2022-08-05T11:47:15.177Z,101157.25
2022-08-05T11:49:57.628Z,101161.38
2022-08-05T11:52:29.316Z,101165.56
2022-08-05T11:54:57.535Z,101183.56
2022-08-05T11:58:08.222Z,101196.75
2022-08-05T12:00:29.113Z,101210.06
2022-08-05T12:02:57.307Z,101222.28
2022-08-05T12:05:32.291Z,101240.69
2022-08-05T12:08:09.693Z,101222.09
2022-08-05T12:10:45.074Z,101227.94
2022-08-05T12:13:18.824Z,101229.56
2022-08-05T12:16:05.365Z,101238.19
2022-08-05T12:18:42.628Z,101254.81
2022-08-05T12:21:17.728Z,101250.69
2022-08-05T12:23:53.359Z,101267.09
2022-08-05T12:26:20.545Z,101275.19
2022-08-05T12:28:50.020Z,101251.63
2022-08-05T12:31:23.321Z,101249.94
2022-08-05T12:34:01.404Z,101251.81
2022-08-05T12:36:30.417Z,101263.88
2022-08-05T12:38:59.002Z,101262.28
2022-08-05T12:41:34.368Z,101268.31
2022-08-05T12:44:06.175Z,101271.44
2022-08-05T12:46:39.677Z,101266.88
2022-08-05T12:49:13.560Z,101258.69
2022-08-05T12:52:12.955Z,101257.16
2022-08-05T12:54:32.533Z,101262.56
2022-08-05T12:57:01.139Z,101259.25
2022-08-05T13:00:08.666Z,101259.22
2022-08-05T13:02:30.338Z,101260.09
2022-08-05T13:04:57.430Z,101266.31
2022-08-05T13:07:56.163Z,101262.16
2022-08-05T13:10:19.621Z,101269.47
2022-08-05T13:12:57.128Z,101265.72
2022-08-05T13:15:41.414Z,101270.09
2022-08-05T13:18:18.865Z,101266.53
2022-08-05T13:20:47.042Z,101268.41
2022-08-05T13:23:13.798Z,101266.53
2022-08-05T13:25:52.343Z,101277.31
2022-08-05T13:28:27.267Z,101269.59
2022-08-05T13:30:54.285Z,101264.16
2022-08-05T13:34:22.452Z,101270.66
2022-08-05T13:36:09.591Z,101269.44
2022-08-05T13:38:42.443Z,101271.38
2022-08-05T13:41:13.083Z,101272.41
2022-08-05T13:43:44.613Z,101270.94
2022-08-05T13:46:13.957Z,101269.44
2022-08-05T13:48:57.601Z,101261.59
2022-08-05T13:51:27.643Z,101260.84
2022-08-05T13:53:56.455Z,101260.97
2022-08-05T13:56:25.304Z,101257.78
2022-08-05T13:58:53.261Z,101248.88
2022-08-05T14:01:23.678Z,101251.34
2022-08-05T14:04:13.343Z,101258.53
2022-08-05T14:06:40.110Z,101245.56
2022-08-05T14:09:14.906Z,101248.34
2022-08-05T14:12:00.670Z,101253.81
2022-08-05T14:14:33.687Z,101246.38
2022-08-05T14:17:00.793Z,101245.41
2022-08-05T14:19:27.592Z,101244.34
2022-08-05T14:22:09.926Z,101236.25
2022-08-05T14:24:40.134Z,101244.59
2022-08-05T14:27:18.270Z,101247.28
2022-08-05T14:29:45.556Z,101235.31
2022-08-05T14:32:26.827Z,101222.63
2022-08-05T14:34:54.628Z,101234.41
2022-08-05T14:37:24.309Z,101224.63
2022-08-05T14:40:13.991Z,101220.91
2022-08-05T14:42:43.675Z,101223.56
2022-08-05T14:45:10.591Z,101221.63
2022-08-05T14:48:03.700Z,101226.50
2022-08-05T14:50:25.346Z,101233.50
2022-08-05T14:52:58.318Z,101241.78
2022-08-05T14:55:38.759Z,101236.47
2022-08-05T14:58:11.372Z,101234.94
2022-08-05T15:00:59.651Z,101245.97
2022-08-05T15:03:33.286Z,101238.31
2022-08-05T15:06:07.720Z,101237.34
2022-08-05T15:08:59.375Z,101236.22
2022-08-05T15:11:52.509Z,101244.41
2022-08-05T15:14:20.159Z,101244.09
2022-08-05T15:17:02.113Z,101234.13
2022-08-05T15:19:31.201Z,101234.97
2022-08-05T15:22:00.299Z,101248.03
2022-08-05T15:24:28.468Z,101240.03
2022-08-05T15:26:55.929Z,101252.25
2022-08-05T15:29:29.708Z,101257.06
2022-08-05T15:32:03.352Z,101258.97
2022-08-05T15:34:33.886Z,101260.81
2022-08-05T15:37:06.117Z,101257.94
2022-08-05T15:40:59.707Z,101262.16
2022-08-05T15:42:56.706Z,101261.13
2022-08-05T15:45:10.517Z,101271.56
2022-08-05T15:47:38.175Z,101271.97
2022-08-05T15:50:05.983Z,101257.78
2022-08-05T15:52:53.807Z,101262.09
2022-08-05T15:55:25.034Z,101269.56
2022-08-05T15:58:08.499Z,101274.16
2022-08-05T16:01:04.146Z,101266.59
2022-08-05T16:03:23.615Z,101270.97
2022-08-05T16:05:52.801Z,101261.00
2022-08-05T16:08:22.700Z,101260.75
2022-08-05T16:10:50.987Z,101266.88
2022-08-05T16:13:23.709Z,101260.94
2022-08-05T16:15:58.934Z,101266.53
2022-08-05T16:18:28.948Z,101276.69
2022-08-05T16:20:56.046Z,101280.59
2022-08-05T16:23:23.063Z,101282.78
2022-08-05T16:25:53.283Z,101280.84
2022-08-05T16:28:24.154Z,101297.22
2022-08-05T16:30:52.194Z,101301.34
2022-08-05T16:33:19.631Z,101304.16
2022-08-05T16:35:52.477Z,101305.84
2022-08-05T16:38:25.655Z,101308.94
2022-08-05T16:41:00.252Z,101303.28
2022-08-05T16:43:30.286Z,101305.59
2022-08-05T16:46:03.477Z,101310.97
2022-08-05T16:48:37.809Z,101303.69
2022-08-05T16:51:09.870Z,101303.38
2022-08-05T16:54:03.852Z,101310.31
2022-08-05T16:56:25.713Z,101332.66
2022-08-05T16:58:52.752Z,101339.03
2022-08-05T17:01:20.284Z,101328.53
2022-08-05T17:03:47.535Z,101334.22
2022-08-05T17:06:16.359Z,101340.81
2022-08-05T17:08:52.750Z,101340.56
2022-08-05T17:11:23.774Z,101347.03
2022-08-05T17:14:00.293Z,101360.44
2022-08-05T17:16:36.368Z,101371.84
2022-08-05T17:19:07.420Z,101379.28
2022-08-05T17:21:37.325Z,101378.31
2022-08-05T17:24:14.345Z,101385.13
2022-08-05T17:26:52.701Z,101379.78
2022-08-05T17:29:22.261Z,101375.50
2022-08-05T17:31:56.790Z,101366.47
2022-08-05T17:34:29.990Z,101371.91
2022-08-05T17:36:59.069Z,101360.28
2022-08-05T17:39:34.403Z,101361.28
2022-08-05T17:42:20.155Z,101391.06
2022-08-05T17:44:51.911Z,101389.69
2022-08-05T17:47:22.509Z,101384.81
2022-08-05T17:50:00.540Z,101391.91
2022-08-05T17:52:32.152Z,101402.91
2022-08-05T17:54:59.115Z,101440.25
2022-08-05T17:57:25.856Z,101444.75
2022-08-05T18:00:03.665Z,101437.34
2022-08-05T18:02:34.241Z,101432.97
2022-08-05T18:05:06.427Z,101442.53
2022-08-05T18:07:41.399Z,101450.94
2022-08-05T18:10:10.789Z,101468.13
2022-08-05T18:12:38.369Z,101466.78
2022-08-05T18:15:05.464Z,101483.25
2022-08-05T18:18:01.699Z,101492.13
2022-08-05T18:20:29.638Z,101504.66
2022-08-05T18:23:04.868Z,101516.59
2022-08-05T18:25:38.774Z,101529.50
2022-08-05T18:28:06.847Z,101532.19
2022-08-05T18:30:34.158Z,101543.25
2022-08-05T18:33:01.486Z,101551.50
2022-08-05T18:36:00.584Z,101559.22
2022-08-05T18:38:19.336Z,101570.41
2022-08-05T18:41:57.398Z,101587.34
2022-08-05T18:43:42.964Z,101584.41
2022-08-05T18:46:19.955Z,101609.34
2022-08-05T18:48:51.833Z,101608.38
2022-08-05T18:52:02.758Z,101611.22
2022-08-05T18:54:28.372Z,101617.75
2022-08-05T18:57:01.077Z,101629.88
2022-08-05T18:59:43.728Z,101638.19
2022-08-05T19:02:36.611Z,101634.41
2022-08-05T19:06:06.103Z,101642.41
2022-08-05T19:07:52.989Z,101648.75
2022-08-05T19:10:27.990Z,101655.78
2022-08-05T19:12:55.371Z,101651.13
2022-08-05T19:15:58.228Z,101648.19
2022-08-05T19:18:13.627Z,101639.03
2022-08-05T19:20:52.265Z,101620.63
2022-08-05T19:24:03.825Z,101620.38
2022-08-05T19:26:08.481Z,101645.78
2022-08-05T19:28:38.026Z,101655.34
2022-08-05T19:31:08.387Z,101667.59
2022-08-05T19:33:36.802Z,101674.34
2022-08-05T19:36:06.251Z,101668.41
2022-08-05T19:38:35.962Z,101667.59
2022-08-05T19:41:06.981Z,101673.66
2022-08-05T19:44:05.777Z,101664.78
2022-08-05T19:46:30.278Z,101667.47
2022-08-05T19:49:01.285Z,101664.91
2022-08-05T19:52:05.155Z,101665.63
2022-08-05T19:54:26.955Z,101670.56
2022-08-05T19:56:59.487Z,101692.63
2022-08-05T19:59:59.428Z,101704.00
2022-08-05T20:02:17.598Z,101700.22
2022-08-05T20:04:50.869Z,101700.22
2022-08-05T20:07:38.916Z,101713.16
2022-08-05T20:10:13.118Z,101722.44
2022-08-05T20:12:46.028Z,101721.66
2022-08-05T20:15:48.302Z,101729.78
2022-08-05T20:18:09.792Z,101728.25
2022-08-05T20:20:51.536Z,101733.63
2022-08-05T20:23:22.252Z,101736.47
2022-08-05T20:25:49.182Z,101744.47
2022-08-05T20:28:19.289Z,101741.81
